sensor_id;sensor_type;location;lat;lon;timestamp;pressure;altitude;pressure_sealevel;temperature;humidity
6899;BME280;3488;42.616;23.350;2024-03-23T00:53:26;93374.03;;;2.62;58.64
6899;BME280;3488;42.616;23.350;2024-03-23T00:55:51;93368.41;;;2.60;59.45
6899;BME280;3488;42.616;23.350;2024-03-23T00:58:17;93368.66;;;2.58;58.95
6899;BME280;3488;42.616;23.350;2024-03-23T01:00:43;93382.28;;;2.69;58.12
6899;BME280;3488;42.616;23.350;2024-03-23T01:03:08;93381.22;;;2.65;59.15
6899;BME280;3488;42.616;23.350;2024-03-23T01:05:34;93373.25;;;2.56;59.25
6899;BME280;3488;42.616;23.350;2024-03-23T01:07:59;93372.19;;;2.52;58.62
6899;BME280;3488;42.616;23.350;2024-03-23T01:10:25;93383.47;;;2.56;59.23
6899;BME280;3488;42.616;23.350;2024-03-23T01:12:51;93372.69;;;2.49;59.90
6899;BME280;3488;42.616;23.350;2024-03-23T01:15:16;93370.09;;;2.44;59.82
6899;BME280;3488;42.616;23.350;2024-03-23T01:17:43;93377.34;;;2.57;59.71
6899;BME280;3488;42.616;23.350;2024-03-23T01:20:09;93374.03;;;2.57;60.31
6899;BME280;3488;42.616;23.350;2024-03-23T01:22:34;93365.81;;;2.54;59.74
6899;BME280;3488;42.616;23.350;2024-03-23T01:25:00;93378.63;;;2.60;58.96
6899;BME280;3488;42.616;23.350;2024-03-23T01:27:26;93358.16;;;2.60;58.39
6899;BME280;3488;42.616;23.350;2024-03-23T01:29:51;93373.78;;;2.63;57.12
6899;BME280;3488;42.616;23.350;2024-03-23T01:32:18;93375.28;;;2.59;58.08
6899;BME280;3488;42.616;23.350;2024-03-23T01:34:44;93370.22;;;2.69;57.94
6899;BME280;3488;42.616;23.350;2024-03-23T01:37:10;93359.16;;;2.53;57.43
6899;BME280;3488;42.616;23.350;2024-03-23T01:39:35;93371.75;;;2.65;58.03
6899;BME280;3488;42.616;23.350;2024-03-23T01:42:01;93362.25;;;2.61;57.78
6899;BME280;3488;42.616;23.350;2024-03-23T01:44:27;93358.41;;;2.58;56.17
6899;BME280;3488;42.616;23.350;2024-03-23T01:46:52;93345.56;;;2.48;57.06
6899;BME280;3488;42.616;23.350;2024-03-23T01:49:18;93369.44;;;2.59;56.91
6899;BME280;3488;42.616;23.350;2024-03-23T01:51:44;93370.69;;;2.56;56.82
6899;BME280;3488;42.616;23.350;2024-03-23T01:54:10;93376.84;;;2.55;57.37
6899;BME280;3488;42.616;23.350;2024-03-23T01:56:36;93367.50;;;2.39;57.79
6899;BME280;3488;42.616;23.350;2024-03-23T01:59:03;93370.56;;;2.36;59.12
6899;BME280;3488;42.616;23.350;2024-03-23T02:01:28;93372.31;;;2.30;59.73
6899;BME280;3488;42.616;23.350;2024-03-23T02:03:54;93352.81;;;2.19;60.38
6899;BME280;3488;42.616;23.350;2024-03-23T02:06:20;93381.53;;;2.31;60.86
6899;BME280;3488;42.616;23.350;2024-03-23T02:08:46;93375.91;;;2.29;61.20
6899;BME280;3488;42.616;23.350;2024-03-23T02:11:12;93376.41;;;2.26;59.99
6899;BME280;3488;42.616;23.350;2024-03-23T02:13:37;93374.34;;;2.23;60.36
6899;BME280;3488;42.616;23.350;2024-03-23T02:16:05;93354.47;;;2.04;59.23
6899;BME280;3488;42.616;23.350;2024-03-23T02:18:30;93379.63;;;2.17;59.19
6899;BME280;3488;42.616;23.350;2024-03-23T02:20:56;93367.28;;;2.04;59.79
6899;BME280;3488;42.616;23.350;2024-03-23T02:23:21;93368.53;;;2.01;59.90
6899;BME280;3488;42.616;23.350;2024-03-23T02:25:47;93376.53;;;2.10;58.84
6899;BME280;3488;42.616;23.350;2024-03-23T02:28:12;93362.91;;;1.99;59.09
6899;BME280;3488;42.616;23.350;2024-03-23T02:30:38;93372.34;;;1.99;58.99
6899;BME280;3488;42.616;23.350;2024-03-23T02:33:04;93378.75;;;1.96;57.98
6899;BME280;3488;42.616;23.350;2024-03-23T02:35:30;93374.63;;;1.95;58.06
6899;BME280;3488;42.616;23.350;2024-03-23T02:37:56;93374.13;;;1.98;57.65
6899;BME280;3488;42.616;23.350;2024-03-23T02:40:23;93381.88;;;2.08;55.86
6899;BME280;3488;42.616;23.350;2024-03-23T02:42:49;93372.38;;;2.04;56.07
6899;BME280;3488;42.616;23.350;2024-03-23T02:45:15;93373.47;;;2.13;55.68
6899;BME280;3488;42.616;23.350;2024-03-23T02:47:40;93371.88;;;2.07;56.55
6899;BME280;3488;42.616;23.350;2024-03-23T02:50:06;93372.66;;;2.07;57.43
6899;BME280;3488;42.616;23.350;2024-03-23T02:52:33;93354.94;;;1.96;58.51
6899;BME280;3488;42.616;23.350;2024-03-23T02:54:58;93355.22;;;1.99;59.49
6899;BME280;3488;42.616;23.350;2024-03-23T02:57:24;93369.53;;;2.00;59.98
6899;BME280;3488;42.616;23.350;2024-03-23T02:59:50;93368.75;;;1.95;59.41
6899;BME280;3488;42.616;23.350;2024-03-23T03:02:16;93358.44;;;1.85;59.69
6899;BME280;3488;42.616;23.350;2024-03-23T03:04:42;93365.63;;;1.88;60.04
6899;BME280;3488;42.616;23.350;2024-03-23T03:07:08;93360.44;;;1.78;60.07
6899;BME280;3488;42.616;23.350;2024-03-23T03:09:34;93355.47;;;1.66;62.23
6899;BME280;3488;42.616;23.350;2024-03-23T03:12:01;93369.00;;;1.67;62.02
6899;BME280;3488;42.616;23.350;2024-03-23T03:14:27;93353.88;;;1.60;62.52
6899;BME280;3488;42.616;23.350;2024-03-23T03:16:53;93377.94;;;1.64;62.80
6899;BME280;3488;42.616;23.350;2024-03-23T03:19:19;93368.72;;;1.63;64.01
6899;BME280;3488;42.616;23.350;2024-03-23T03:21:45;93367.94;;;1.58;63.25
6899;BME280;3488;42.616;23.350;2024-03-23T03:24:10;93363.81;;;1.57;63.10
6899;BME280;3488;42.616;23.350;2024-03-23T03:26:36;93370.03;;;1.66;63.55
6899;BME280;3488;42.616;23.350;2024-03-23T03:29:02;93370.28;;;1.64;62.39
6899;BME280;3488;42.616;23.350;2024-03-23T03:31:28;93368.22;;;1.61;62.61
6899;BME280;3488;42.616;23.350;2024-03-23T03:33:53;93351.56;;;1.59;61.46
6899;BME280;3488;42.616;23.350;2024-03-23T03:36:19;93351.56;;;1.59;61.10
6899;BME280;3488;42.616;23.350;2024-03-23T03:38:45;93358.50;;;1.63;61.17
6899;BME280;3488;42.616;23.350;2024-03-23T03:41:11;93369.31;;;1.70;62.58
6899;BME280;3488;42.616;23.350;2024-03-23T03:43:36;93359.75;;;1.61;62.25
6899;BME280;3488;42.616;23.350;2024-03-23T03:46:03;93372.00;;;1.59;62.17
6899;BME280;3488;42.616;23.350;2024-03-23T03:48:28;93370.19;;;1.54;61.61
6899;BME280;3488;42.616;23.350;2024-03-23T03:50:55;93356.03;;;1.47;61.14
6899;BME280;3488;42.616;23.350;2024-03-23T03:53:20;93378.06;;;1.48;62.09
6899;BME280;3488;42.616;23.350;2024-03-23T03:55:46;93378.50;;;1.45;62.70
6899;BME280;3488;42.616;23.350;2024-03-23T03:58:12;93374.88;;;1.36;61.75
6899;BME280;3488;42.616;23.350;2024-03-23T04:00:37;93372.97;;;1.26;62.05
6899;BME280;3488;42.616;23.350;2024-03-23T04:03:03;93366.50;;;1.18;60.87
6899;BME280;3488;42.616;23.350;2024-03-23T04:05:29;93382.44;;;1.25;61.24
6899;BME280;3488;42.616;23.350;2024-03-23T04:07:56;93378.00;;;1.21;62.87
6899;BME280;3488;42.616;23.350;2024-03-23T04:10:21;93369.72;;;1.09;63.39
6899;BME280;3488;42.616;23.350;2024-03-23T04:12:47;93377.50;;;1.19;63.14
6899;BME280;3488;42.616;23.350;2024-03-23T04:15:14;93375.66;;;1.14;63.80
6899;BME280;3488;42.616;23.350;2024-03-23T04:17:40;93377.75;;;1.17;64.01
6899;BME280;3488;42.616;23.350;2024-03-23T04:20:08;93382.81;;;1.12;63.94
6899;BME280;3488;42.616;23.350;2024-03-23T04:22:37;93372.81;;;1.11;63.55
6899;BME280;3488;42.616;23.350;2024-03-23T04:25:03;93367.44;;;1.07;63.67
6899;BME280;3488;42.616;23.350;2024-03-23T04:27:36;93375.88;;;1.13;63.68
6899;BME280;3488;42.616;23.350;2024-03-23T04:30:02;93371.03;;;1.11;66.80
6899;BME280;3488;42.616;23.350;2024-03-23T04:32:29;93387.97;;;1.17;65.02
6899;BME280;3488;42.616;23.350;2024-03-23T04:34:55;93384.88;;;1.15;65.56
6899;BME280;3488;42.616;23.350;2024-03-23T04:37:21;93378.16;;;1.09;65.51
6899;BME280;3488;42.616;23.350;2024-03-23T04:39:47;93376.56;;;1.03;66.70
6899;BME280;3488;42.616;23.350;2024-03-23T04:42:15;93379.72;;;1.10;68.08
6899;BME280;3488;42.616;23.350;2024-03-23T04:44:41;93387.53;;;1.25;68.45
6899;BME280;3488;42.616;23.350;2024-03-23T04:47:07;93372.91;;;1.21;68.76
6899;BME280;3488;42.616;23.350;2024-03-23T04:49:33;93396.41;;;1.45;69.83
6899;BME280;3488;42.616;23.350;2024-03-23T04:51:58;93397.78;;;1.52;69.96
6899;BME280;3488;42.616;23.350;2024-03-23T04:54:24;93387.31;;;1.54;68.93
6899;BME280;3488;42.616;23.350;2024-03-23T04:56:50;93392.50;;;1.64;67.67
6899;BME280;3488;42.616;23.350;2024-03-23T04:59:15;93384.06;;;1.63;66.65
6899;BME280;3488;42.616;23.350;2024-03-23T05:01:41;93379.28;;;1.72;65.15
6899;BME280;3488;42.616;23.350;2024-03-23T05:04:08;93397.59;;;1.90;65.32
6899;BME280;3488;42.616;23.350;2024-03-23T05:06:33;93387.91;;;1.92;64.10
6899;BME280;3488;42.616;23.350;2024-03-23T05:09:00;93387.19;;;2.02;64.32
6899;BME280;3488;42.616;23.350;2024-03-23T05:11:28;93399.06;;;2.13;64.27
6899;BME280;3488;42.616;23.350;2024-03-23T05:13:54;93393.50;;;2.21;66.76
6899;BME280;3488;42.616;23.350;2024-03-23T05:16:19;93389.72;;;2.28;67.01
6899;BME280;3488;42.616;23.350;2024-03-23T05:18:46;93396.47;;;2.44;66.35
6899;BME280;3488;42.616;23.350;2024-03-23T05:21:12;93403.00;;;2.62;66.95
6899;BME280;3488;42.616;23.350;2024-03-23T05:23:37;93384.59;;;2.70;66.45
6899;BME280;3488;42.616;23.350;2024-03-23T05:26:03;93365.34;;;2.68;66.30
6899;BME280;3488;42.616;23.350;2024-03-23T05:28:30;93379.56;;;2.90;66.17
6899;BME280;3488;42.616;23.350;2024-03-23T05:30:56;93370.59;;;2.93;65.78
6899;BME280;3488;42.616;23.350;2024-03-23T05:33:25;93368.59;;;3.05;64.74
6899;BME280;3488;42.616;23.350;2024-03-23T05:35:58;93372.78;;;3.26;65.38
6899;BME280;3488;42.616;23.350;2024-03-23T05:38:24;93389.97;;;3.35;62.92
6899;BME280;3488;42.616;23.350;2024-03-23T05:41:00;93372.56;;;3.37;63.28
6899;BME280;3488;42.616;23.350;2024-03-23T05:43:26;93383.63;;;3.73;62.80
6899;BME280;3488;42.616;23.350;2024-03-23T05:45:59;93340.00;;;3.63;62.53
6899;BME280;3488;42.616;23.350;2024-03-23T05:48:26;93374.16;;;3.99;63.45
6899;BME280;3488;42.616;23.350;2024-03-23T05:50:52;93376.47;;;4.05;62.38
6899;BME280;3488;42.616;23.350;2024-03-23T05:53:18;93387.47;;;3.60;64.71
6899;BME280;3488;42.616;23.350;2024-03-23T05:55:45;93386.69;;;3.60;64.00
6899;BME280;3488;42.616;23.350;2024-03-23T05:58:14;93393.41;;;3.71;63.19
6899;BME280;3488;42.616;23.350;2024-03-23T06:00:39;93375.47;;;3.81;62.79
6899;BME280;3488;42.616;23.350;2024-03-23T06:03:05;93384.94;;;4.21;61.73
6899;BME280;3488;42.616;23.350;2024-03-23T06:05:30;93386.50;;;4.42;61.45
6899;BME280;3488;42.616;23.350;2024-03-23T06:07:56;93376.22;;;4.27;59.40
6899;BME280;3488;42.616;23.350;2024-03-23T06:10:23;93378.53;;;4.38;60.42
6899;BME280;3488;42.616;23.350;2024-03-23T06:12:48;93379.28;;;4.24;58.86
6899;BME280;3488;42.616;23.350;2024-03-23T06:15:14;93383.91;;;4.57;59.59
6899;BME280;3488;42.616;23.350;2024-03-23T06:17:40;93369.25;;;4.47;59.80
6899;BME280;3488;42.616;23.350;2024-03-23T06:20:07;93379.47;;;4.77;58.59
6899;BME280;3488;42.616;23.350;2024-03-23T06:22:32;93371.50;;;4.79;60.02
6899;BME280;3488;42.616;23.350;2024-03-23T06:24:59;93376.59;;;4.89;60.33
6899;BME280;3488;42.616;23.350;2024-03-23T06:27:24;93380.91;;;5.19;58.96
6899;BME280;3488;42.616;23.350;2024-03-23T06:29:49;93378.00;;;5.30;58.84
6899;BME280;3488;42.616;23.350;2024-03-23T06:32:15;93367.06;;;5.04;58.47
6899;BME280;3488;42.616;23.350;2024-03-23T06:34:41;93391.31;;;5.47;59.12
6899;BME280;3488;42.616;23.350;2024-03-23T06:37:07;93383.00;;;5.60;57.28
6899;BME280;3488;42.616;23.350;2024-03-23T06:39:38;93386.84;;;5.68;54.76
6899;BME280;3488;42.616;23.350;2024-03-23T06:42:04;93375.69;;;5.82;55.18
6899;BME280;3488;42.616;23.350;2024-03-23T06:44:29;93367.28;;;6.05;53.27
6899;BME280;3488;42.616;23.350;2024-03-23T06:46:56;93379.50;;;6.23;53.94
6899;BME280;3488;42.616;23.350;2024-03-23T06:49:23;93380.50;;;5.94;55.45
6899;BME280;3488;42.616;23.350;2024-03-23T06:51:48;93382.94;;;5.70;54.98
6899;BME280;3488;42.616;23.350;2024-03-23T06:54:14;93393.44;;;5.84;53.38
6899;BME280;3488;42.616;23.350;2024-03-23T06:56:40;93385.16;;;5.92;53.87
6899;BME280;3488;42.616;23.350;2024-03-23T06:59:06;93387.78;;;5.77;54.22
6899;BME280;3488;42.616;23.350;2024-03-23T07:01:32;93390.47;;;6.05;52.93
6899;BME280;3488;42.616;23.350;2024-03-23T07:03:57;93376.94;;;6.23;52.85
6899;BME280;3488;42.616;23.350;2024-03-23T07:06:23;93376.84;;;6.33;51.84
6899;BME280;3488;42.616;23.350;2024-03-23T07:08:48;93379.69;;;6.32;51.82
6899;BME280;3488;42.616;23.350;2024-03-23T07:11:24;93360.00;;;6.46;52.27
6899;BME280;3488;42.616;23.350;2024-03-23T07:13:51;93361.16;;;6.30;51.17
6899;BME280;3488;42.616;23.350;2024-03-23T07:16:17;93365.34;;;6.26;51.75
6899;BME280;3488;42.616;23.350;2024-03-23T07:18:43;93363.91;;;6.39;52.51
6899;BME280;3488;42.616;23.350;2024-03-23T07:21:08;93361.09;;;6.64;51.75
6899;BME280;3488;42.616;23.350;2024-03-23T07:23:34;93358.22;;;6.70;51.14
6899;BME280;3488;42.616;23.350;2024-03-23T07:26:02;93364.91;;;7.18;51.03
6899;BME280;3488;42.616;23.350;2024-03-23T07:28:28;93364.47;;;7.53;50.28
6899;BME280;3488;42.616;23.350;2024-03-23T07:31:13;93362.94;;;7.52;48.93
6899;BME280;3488;42.616;23.350;2024-03-23T07:33:47;93356.84;;;7.01;50.59
6899;BME280;3488;42.616;23.350;2024-03-23T07:36:14;93356.19;;;7.14;49.68
6899;BME280;3488;42.616;23.350;2024-03-23T07:38:43;93355.06;;;7.02;50.16
6899;BME280;3488;42.616;23.350;2024-03-23T07:41:17;93359.09;;;7.08;49.47
6899;BME280;3488;42.616;23.350;2024-03-23T07:43:43;93350.38;;;7.46;48.65
6899;BME280;3488;42.616;23.350;2024-03-23T07:46:09;93345.84;;;7.75;49.21
6899;BME280;3488;42.616;23.350;2024-03-23T07:48:35;93345.97;;;8.02;47.81
6899;BME280;3488;42.616;23.350;2024-03-23T07:53:27;93351.34;;;8.06;47.95
6899;BME280;3488;42.616;23.350;2024-03-23T07:55:57;93346.19;;;7.87;48.12
6899;BME280;3488;42.616;23.350;2024-03-23T07:58:23;93339.22;;;8.06;46.75
6899;BME280;3488;42.616;23.350;2024-03-23T08:00:49;93330.63;;;8.43;47.59
6899;BME280;3488;42.616;23.350;2024-03-23T08:03:15;93332.53;;;8.51;46.59
6899;BME280;3488;42.616;23.350;2024-03-23T08:05:41;93333.97;;;8.57;46.52
6899;BME280;3488;42.616;23.350;2024-03-23T08:08:07;93345.81;;;9.04;45.34
6899;BME280;3488;42.616;23.350;2024-03-23T08:10:33;93331.72;;;9.10;45.38
6899;BME280;3488;42.616;23.350;2024-03-23T08:12:58;93345.81;;;9.17;45.28
6899;BME280;3488;42.616;23.350;2024-03-23T08:15:24;93350.69;;;9.05;45.32
6899;BME280;3488;42.616;23.350;2024-03-23T08:17:50;93351.94;;;8.94;46.41
6899;BME280;3488;42.616;23.350;2024-03-23T08:20:15;93343.28;;;9.26;45.90
6899;BME280;3488;42.616;23.350;2024-03-23T08:22:41;93345.63;;;9.27;45.81
6899;BME280;3488;42.616;23.350;2024-03-23T08:25:06;93344.34;;;9.52;44.86
6899;BME280;3488;42.616;23.350;2024-03-23T08:27:32;93334.72;;;9.88;44.63
6899;BME280;3488;42.616;23.350;2024-03-23T08:29:58;93314.84;;;9.97;44.08
6899;BME280;3488;42.616;23.350;2024-03-23T08:32:23;93312.34;;;10.28;42.53
6899;BME280;3488;42.616;23.350;2024-03-23T08:34:49;93333.84;;;10.28;42.83
6899;BME280;3488;42.616;23.350;2024-03-23T08:37:15;93336.13;;;9.72;43.50
6899;BME280;3488;42.616;23.350;2024-03-23T08:39:42;93343.34;;;9.97;42.91
6899;BME280;3488;42.616;23.350;2024-03-23T08:42:08;93327.34;;;10.17;42.25
6899;BME280;3488;42.616;23.350;2024-03-23T08:44:34;93323.88;;;9.99;43.02
6899;BME280;3488;42.616;23.350;2024-03-23T08:46:59;93323.69;;;10.18;43.06
6899;BME280;3488;42.616;23.350;2024-03-23T08:49:26;93305.66;;;10.13;41.49
6899;BME280;3488;42.616;23.350;2024-03-23T08:51:51;93304.69;;;10.23;42.28
6899;BME280;3488;42.616;23.350;2024-03-23T08:54:17;93306.53;;;10.53;42.83
6899;BME280;3488;42.616;23.350;2024-03-23T08:56:45;93312.63;;;10.57;42.04
6899;BME280;3488;42.616;23.350;2024-03-23T08:59:10;93313.22;;;10.54;41.17
6899;BME280;3488;42.616;23.350;2024-03-23T09:01:36;93301.47;;;10.78;40.97
6899;BME280;3488;42.616;23.350;2024-03-23T09:04:01;93313.44;;;10.96;40.51
6899;BME280;3488;42.616;23.350;2024-03-23T09:06:27;93295.13;;;11.01;40.19
6899;BME280;3488;42.616;23.350;2024-03-23T09:08:52;93301.56;;;11.12;41.15
6899;BME280;3488;42.616;23.350;2024-03-23T09:11:18;93293.19;;;10.76;41.73
6899;BME280;3488;42.616;23.350;2024-03-23T09:13:43;93286.09;;;10.99;41.85
6899;BME280;3488;42.616;23.350;2024-03-23T09:16:09;93297.91;;;11.13;40.29
6899;BME280;3488;42.616;23.350;2024-03-23T09:18:36;93292.75;;;11.31;40.22
6899;BME280;3488;42.616;23.350;2024-03-23T09:21:02;93280.25;;;11.50;40.52
6899;BME280;3488;42.616;23.350;2024-03-23T09:23:28;93271.72;;;11.83;39.08
6899;BME280;3488;42.616;23.350;2024-03-23T09:25:54;93284.97;;;11.39;39.74
6899;BME280;3488;42.616;23.350;2024-03-23T09:28:19;93278.72;;;11.57;38.95
6899;BME280;3488;42.616;23.350;2024-03-23T09:30:45;93264.22;;;11.73;39.75
6899;BME280;3488;42.616;23.350;2024-03-23T09:33:12;93256.28;;;11.87;38.71
6899;BME280;3488;42.616;23.350;2024-03-23T09:35:39;93256.88;;;12.18;38.23
6899;BME280;3488;42.616;23.350;2024-03-23T09:38:04;93259.72;;;12.33;37.84
6899;BME280;3488;42.616;23.350;2024-03-23T09:40:31;93256.38;;;12.33;38.21
6899;BME280;3488;42.616;23.350;2024-03-23T09:42:57;93248.31;;;11.92;37.55
6899;BME280;3488;42.616;23.350;2024-03-23T09:45:27;93242.13;;;12.30;38.20
6899;BME280;3488;42.616;23.350;2024-03-23T09:47:52;93241.88;;;12.61;36.68
6899;BME280;3488;42.616;23.350;2024-03-23T09:50:18;93240.03;;;12.15;37.49
6899;BME280;3488;42.616;23.350;2024-03-23T09:52:45;93235.50;;;12.41;37.27
6899;BME280;3488;42.616;23.350;2024-03-23T09:55:11;93237.03;;;12.80;36.73
6899;BME280;3488;42.616;23.350;2024-03-23T09:57:36;93229.47;;;12.67;36.52
6899;BME280;3488;42.616;23.350;2024-03-23T10:00:03;93230.00;;;13.18;36.00
6899;BME280;3488;42.616;23.350;2024-03-23T10:02:29;93225.84;;;12.88;35.87
6899;BME280;3488;42.616;23.350;2024-03-23T10:04:56;93215.06;;;12.69;35.74
6899;BME280;3488;42.616;23.350;2024-03-23T10:07:22;93215.94;;;12.82;37.02
6899;BME280;3488;42.616;23.350;2024-03-23T10:09:48;93210.66;;;13.19;35.59
6899;BME280;3488;42.616;23.350;2024-03-23T10:12:17;93216.84;;;13.15;34.81
6899;BME280;3488;42.616;23.350;2024-03-23T10:14:44;93199.75;;;13.26;34.46
6899;BME280;3488;42.616;23.350;2024-03-23T10:17:16;93212.72;;;13.55;34.23
6899;BME280;3488;42.616;23.350;2024-03-23T10:19:49;93193.34;;;13.23;34.81
6899;BME280;3488;42.616;23.350;2024-03-23T10:22:23;93204.44;;;13.32;35.01
6899;BME280;3488;42.616;23.350;2024-03-23T10:24:52;93199.13;;;13.00;35.51
6899;BME280;3488;42.616;23.350;2024-03-23T10:27:19;93170.34;;;12.96;35.01
6899;BME280;3488;42.616;23.350;2024-03-23T10:29:49;93184.88;;;13.06;35.54
6899;BME280;3488;42.616;23.350;2024-03-23T10:32:16;93159.69;;;13.39;34.29
6899;BME280;3488;42.616;23.350;2024-03-23T10:34:43;93138.72;;;13.47;34.51
6899;BME280;3488;42.616;23.350;2024-03-23T10:37:10;93153.56;;;13.55;34.78
6899;BME280;3488;42.616;23.350;2024-03-23T10:39:38;93171.25;;;13.83;33.97
6899;BME280;3488;42.616;23.350;2024-03-23T10:42:08;93152.63;;;13.72;33.63
6899;BME280;3488;42.616;23.350;2024-03-23T10:44:37;93151.16;;;13.50;33.09
6899;BME280;3488;42.616;23.350;2024-03-23T10:47:05;93162.53;;;13.79;33.19
6899;BME280;3488;42.616;23.350;2024-03-23T10:49:35;93135.94;;;13.85;32.21
6899;BME280;3488;42.616;23.350;2024-03-23T10:52:05;93149.63;;;14.27;33.61
6899;BME280;3488;42.616;23.350;2024-03-23T10:54:32;93142.34;;;14.68;32.11
6899;BME280;3488;42.616;23.350;2024-03-23T10:57:08;93143.75;;;14.66;33.08
6899;BME280;3488;42.616;23.350;2024-03-23T10:59:37;93132.44;;;14.86;32.45
6899;BME280;3488;42.616;23.350;2024-03-23T11:02:03;93132.06;;;15.12;32.19
6899;BME280;3488;42.616;23.350;2024-03-23T11:04:36;93120.38;;;14.81;31.12
6899;BME280;3488;42.616;23.350;2024-03-23T11:09:52;93116.91;;;14.53;31.18
6899;BME280;3488;42.616;23.350;2024-03-23T11:14:47;93102.00;;;14.54;31.64
6899;BME280;3488;42.616;23.350;2024-03-23T11:17:20;93105.38;;;14.66;32.06
6899;BME280;3488;42.616;23.350;2024-03-23T11:27:46;93083.09;;;15.36;29.98
6899;BME280;3488;42.616;23.350;2024-03-23T11:32:44;93067.53;;;15.67;31.33
6899;BME280;3488;42.616;23.350;2024-03-23T11:35:10;93064.66;;;16.03;30.78
6899;BME280;3488;42.616;23.350;2024-03-23T11:37:37;93063.41;;;15.97;29.77
6899;BME280;3488;42.616;23.350;2024-03-23T11:40:20;93063.56;;;16.20;29.42
6899;BME280;3488;42.616;23.350;2024-03-23T11:42:46;93050.59;;;15.49;29.32
6899;BME280;3488;42.616;23.350;2024-03-23T11:45:12;93047.47;;;16.02;31.12
6899;BME280;3488;42.616;23.350;2024-03-23T11:47:39;93046.09;;;15.93;29.89
6899;BME280;3488;42.616;23.350;2024-03-23T11:50:05;93005.94;;;15.70;29.44
6899;BME280;3488;42.616;23.350;2024-03-23T11:52:32;93014.59;;;16.36;31.29
6899;BME280;3488;42.616;23.350;2024-03-23T11:55:05;92998.88;;;15.86;27.88
6899;BME280;3488;42.616;23.350;2024-03-23T11:57:33;93007.88;;;15.30;28.97
6899;BME280;3488;42.616;23.350;2024-03-23T11:59:59;93009.63;;;15.84;27.77
6899;BME280;3488;42.616;23.350;2024-03-23T12:02:24;93008.38;;;15.78;28.22
6899;BME280;3488;42.616;23.350;2024-03-23T12:04:50;92960.31;;;14.81;30.43
6899;BME280;3488;42.616;23.350;2024-03-23T12:07:19;93002.16;;;14.57;29.51
6899;BME280;3488;42.616;23.350;2024-03-23T12:10:07;93004.63;;;14.65;29.63
6899;BME280;3488;42.616;23.350;2024-03-23T12:12:33;92986.50;;;14.57;29.96
6899;BME280;3488;42.616;23.350;2024-03-23T12:15:06;92997.50;;;14.90;30.18
6899;BME280;3488;42.616;23.350;2024-03-23T12:17:33;92979.69;;;15.08;29.17
6899;BME280;3488;42.616;23.350;2024-03-23T12:20:00;92988.56;;;15.19;29.48
6899;BME280;3488;42.616;23.350;2024-03-23T12:22:26;92980.28;;;15.44;29.06
6899;BME280;3488;42.616;23.350;2024-03-23T12:24:52;92969.34;;;15.27;29.27
6899;BME280;3488;42.616;23.350;2024-03-23T12:27:18;92979.53;;;15.90;31.26
6899;BME280;3488;42.616;23.350;2024-03-23T12:29:44;92964.13;;;16.20;28.20
6899;BME280;3488;42.616;23.350;2024-03-23T12:32:12;92967.06;;;16.18;27.31
6899;BME280;3488;42.616;23.350;2024-03-23T12:34:39;92971.69;;;15.75;29.27
6899;BME280;3488;42.616;23.350;2024-03-23T12:37:04;92957.22;;;15.96;29.10
6899;BME280;3488;42.616;23.350;2024-03-23T12:39:32;92957.09;;;15.58;28.94
6899;BME280;3488;42.616;23.350;2024-03-23T12:41:58;92953.13;;;15.95;28.54
6899;BME280;3488;42.616;23.350;2024-03-23T12:44:24;92950.56;;;15.99;27.75
6899;BME280;3488;42.616;23.350;2024-03-23T12:46:51;92958.69;;;16.29;28.33
6899;BME280;3488;42.616;23.350;2024-03-23T12:49:17;92911.81;;;16.39;27.52
6899;BME280;3488;42.616;23.350;2024-03-23T12:51:57;92925.84;;;16.85;29.07
6899;BME280;3488;42.616;23.350;2024-03-23T12:54:23;92887.16;;;16.59;26.66
6899;BME280;3488;42.616;23.350;2024-03-23T12:56:50;92914.56;;;17.26;27.62
6899;BME280;3488;42.616;23.350;2024-03-23T12:59:16;92895.66;;;17.36;25.70
6899;BME280;3488;42.616;23.350;2024-03-23T13:01:43;92931.03;;;17.46;24.51
6899;BME280;3488;42.616;23.350;2024-03-23T13:04:09;92930.59;;;17.21;24.73
6899;BME280;3488;42.616;23.350;2024-03-23T13:06:35;92926.63;;;17.08;25.00
6899;BME280;3488;42.616;23.350;2024-03-23T13:09:04;92926.59;;;17.27;26.11
6899;BME280;3488;42.616;23.350;2024-03-23T13:11:30;92909.56;;;17.17;25.32
6899;BME280;3488;42.616;23.350;2024-03-23T13:13:56;92913.56;;;17.53;26.55
6899;BME280;3488;42.616;23.350;2024-03-23T13:16:22;92905.38;;;18.07;26.23
6899;BME280;3488;42.616;23.350;2024-03-23T13:18:48;92870.69;;;18.20;25.47
6899;BME280;3488;42.616;23.350;2024-03-23T13:21:14;92886.91;;;18.26;25.01
6899;BME280;3488;42.616;23.350;2024-03-23T13:23:39;92896.38;;;18.64;23.48
6899;BME280;3488;42.616;23.350;2024-03-23T13:26:07;92878.47;;;18.73;22.98
6899;BME280;3488;42.616;23.350;2024-03-23T13:28:33;92892.78;;;19.15;21.08
6899;BME280;3488;42.616;23.350;2024-03-23T13:30:59;92850.41;;;18.84;21.82
6899;BME280;3488;42.616;23.350;2024-03-23T13:33:32;92881.00;;;18.66;23.25
6899;BME280;3488;42.616;23.350;2024-03-23T13:35:58;92854.06;;;18.72;23.08
6899;BME280;3488;42.616;23.350;2024-03-23T13:38:24;92849.34;;;18.88;22.00
6899;BME280;3488;42.616;23.350;2024-03-23T13:40:53;92885.88;;;18.97;22.87
6899;BME280;3488;42.616;23.350;2024-03-23T13:43:19;92875.31;;;19.30;21.11
6899;BME280;3488;42.616;23.350;2024-03-23T13:45:47;92872.38;;;18.35;20.90
6899;BME280;3488;42.616;23.350;2024-03-23T13:48:14;92861.16;;;18.38;22.23
6899;BME280;3488;42.616;23.350;2024-03-23T13:50:41;92866.44;;;19.08;21.79
6899;BME280;3488;42.616;23.350;2024-03-23T13:53:06;92854.13;;;19.59;20.81
6899;BME280;3488;42.616;23.350;2024-03-23T13:55:34;92856.00;;;19.59;21.25
6899;BME280;3488;42.616;23.350;2024-03-23T13:57:59;92830.84;;;19.61;18.89
6899;BME280;3488;42.616;23.350;2024-03-23T14:00:25;92826.16;;;19.41;19.53
6899;BME280;3488;42.616;23.350;2024-03-23T14:02:51;92856.31;;;19.54;19.44
6899;BME280;3488;42.616;23.350;2024-03-23T14:05:17;92860.41;;;19.44;17.49
6899;BME280;3488;42.616;23.350;2024-03-23T14:07:43;92848.34;;;19.94;16.88
6899;BME280;3488;42.616;23.350;2024-03-23T14:10:09;92850.06;;;20.27;17.23
6899;BME280;3488;42.616;23.350;2024-03-23T14:12:38;92844.72;;;20.16;16.46
6899;BME280;3488;42.616;23.350;2024-03-23T14:15:07;92789.53;;;19.72;17.65
6899;BME280;3488;42.616;23.350;2024-03-23T14:17:33;92833.69;;;19.97;17.44
6899;BME280;3488;42.616;23.350;2024-03-23T14:19:59;92844.97;;;19.94;18.24
6899;BME280;3488;42.616;23.350;2024-03-23T14:22:31;92841.63;;;20.00;17.15
6899;BME280;3488;42.616;23.350;2024-03-23T14:24:57;92832.25;;;20.10;18.00